Time;durP1;ratioP1;P1;durP2;ratioP2;P2;SDS_P1;SDS_P2;PMS_P1;PMS_P2;Temp;Humidity;BMP_temperature;BMP_pressure;BME280_temperature;BME280_humidity;BME280_pressure;Samples;Min_cycle;Max_cycle;Signal;HPM_P1;HPM_P2
2022/06/10 00:02:08;;;;;;;10.53;9.47;;;;;;;13.71;85.44;100796.59;5102271;28;20474;-65
2022/06/10 00:04:35;;;;;;;12.17;10.47;;;;;;;13.70;85.44;100796.75;5102393;28;20451;-65
2022/06/10 00:07:02;;;;;;;13.03;10.10;;;;;;;13.66;85.79;100792.63;5101487;28;20470;-66
2022/06/10 00:09:31;;;;;;;14.30;9.80;;;;;;;13.65;85.74;100796.34;5101987;28;20431;-66
2022/06/10 00:11:58;;;;;;;13.03;11.00;;;;;;;13.63;85.72;100806.38;5099572;28;20485;-66
2022/06/10 00:14:26;;;;;;;13.10;10.67;;;;;;;13.60;85.49;100807.50;5100856;28;20463;-66
2022/06/10 00:16:53;;;;;;;10.97;9.87;;;;;;;13.55;85.44;100807.94;5100854;28;20475;-65
2022/06/10 00:19:19;;;;;;;11.53;10.33;;;;;;;13.49;85.30;100813.91;5102459;28;20424;-65
2022/06/10 00:21:46;;;;;;;10.30;9.20;;;;;;;13.48;85.59;100812.22;5101606;28;20478;-65
2022/06/10 00:24:13;;;;;;;11.03;9.60;;;;;;;13.45;85.47;100804.44;5101869;28;20455;-65
2022/06/10 00:26:42;;;;;;;14.37;9.33;;;;;;;13.43;85.12;100805.59;5100625;28;20841;-65
2022/06/10 00:29:08;;;;;;;12.60;9.93;;;;;;;13.41;85.48;100812.94;5102206;28;20443;-65
2022/06/10 00:31:35;;;;;;;11.40;10.30;;;;;;;13.37;85.30;100809.72;5100902;28;20486;-65
2022/06/10 00:34:02;;;;;;;10.53;9.37;;;;;;;13.34;85.35;100810.00;5101749;28;20490;-65
2022/06/10 00:36:30;;;;;;;10.47;9.40;;;;;;;13.35;85.30;100819.75;5099294;28;20563;-65
2022/06/10 00:38:57;;;;;;;10.07;9.17;;;;;;;13.31;85.55;100810.25;5101324;28;20446;-65
2022/06/10 00:41:24;;;;;;;10.67;9.53;;;;;;;13.28;85.17;100810.53;5112186;28;20541;-65
2022/06/10 00:43:52;;;;;;;9.93;8.40;;;;;;;13.18;85.08;100799.81;5121458;28;20454;-65
2022/06/10 00:46:29;;;;;;;10.43;8.60;;;;;;;13.12;85.24;100803.06;5109503;28;20479;-66
2022/06/10 00:49:01;;;;;;;9.33;8.57;;;;;;;13.09;85.34;100804.22;5100734;28;20544;-66
2022/06/10 00:51:34;;;;;;;12.07;9.30;;;;;;;13.05;85.39;100802.78;5097570;28;20521;-66
2022/06/10 00:54:08;;;;;;;10.17;8.67;;;;;;;13.03;85.54;100801.25;5082220;28;20448;-66
2022/06/10 00:56:36;;;;;;;9.07;8.27;;;;;;;13.02;85.27;100812.97;5098261;28;20473;-65
2022/06/10 00:59:09;;;;;;;10.27;9.27;;;;;;;12.95;85.22;100800.13;5113173;28;20451;-65
2022/06/10 01:01:36;;;;;;;11.27;10.27;;;;;;;12.97;85.53;100813.41;5112589;28;20477;-66
2022/06/10 01:04:03;;;;;;;11.23;9.80;;;;;;;13.00;85.31;100819.34;5106270;28;20477;-66
2022/06/10 01:06:30;;;;;;;13.63;10.23;;;;;;;12.96;85.51;100817.91;5120352;28;20478;-66
2022/06/10 01:08:59;;;;;;;10.53;9.43;;;;;;;12.90;86.00;100826.53;5121396;28;20457;-65
2022/06/10 01:11:57;;;;;;;12.53;11.27;;;;;;;12.89;86.00;100824.84;5121095;28;20481;-65
2022/06/10 01:14:33;;;;;;;16.20;14.57;;;;;;;12.94;86.24;100819.06;5104540;28;20541;-66
2022/06/10 01:17:10;;;;;;;13.43;12.23;;;;;;;12.96;86.10;100817.06;5120789;28;20474;-65
2022/06/10 01:20:08;;;;;;;13.17;11.20;;;;;;;12.94;86.47;100830.63;5121898;28;20438;-65
2022/06/10 01:23:10;;;;;;;16.80;15.10;;;;;;;12.97;86.70;100829.50;5120599;28;20469;-65
2022/06/10 01:25:57;;;;;;;16.00;11.67;;;;;;;12.91;86.43;100825.53;5088549;28;20470;-65
2022/06/10 01:28:34;;;;;;;14.00;11.67;;;;;;;12.85;86.23;100822.59;5120485;28;20464;-65
2022/06/10 01:31:11;;;;;;;21.03;14.93;;;;;;;12.80;86.36;100823.84;5120831;28;20478;-65
2022/06/10 01:33:50;;;;;;;16.30;13.33;;;;;;;12.80;85.95;100823.84;5120038;28;20459;-65
2022/06/10 01:36:22;;;;;;;15.17;13.67;;;;;;;12.77;85.83;100817.91;5120116;28;20495;-65
2022/06/10 01:38:56;;;;;;;16.03;13.97;;;;;;;12.73;86.04;100820.03;5121486;28;20475;-65
2022/06/10 01:41:30;;;;;;;17.33;12.83;;;;;;;12.69;85.95;100815.94;5119774;28;20538;-66
2022/06/10 01:44:01;;;;;;;14.80;13.27;;;;;;;12.62;85.79;100818.34;5119680;28;20808;-66
2022/06/10 01:46:32;;;;;;;14.27;12.77;;;;;;;12.56;86.06;100816.22;5119001;28;20867;-66
2022/06/10 01:49:24;;;;;;;21.67;17.20;;;;;;;12.57;86.04;100809.03;5120135;28;20442;-66
2022/06/10 01:51:57;;;;;;;14.03;12.63;;;;;;;12.57;85.91;100811.72;5119845;28;20481;-66
2022/06/10 01:54:31;;;;;;;14.10;12.60;;;;;;;12.51;86.13;100813.09;5113356;28;20454;-66
2022/06/10 01:57:00;;;;;;;16.17;13.40;;;;;;;12.48;85.92;100807.16;5103514;28;20569;-66
2022/06/10 01:59:29;;;;;;;12.87;11.30;;;;;;;12.43;86.47;100811.13;5100210;28;20448;-66
2022/06/10 02:02:05;;;;;;;11.77;10.57;;;;;;;12.48;86.63;100813.41;5099321;28;20485;-66
2022/06/10 02:04:34;;;;;;;11.00;9.93;;;;;;;12.52;86.68;100817.50;5099937;28;20493;-65
2022/06/10 02:07:04;;;;;;;11.80;10.70;;;;;;;12.44;86.36;100820.84;5098444;28;20498;-65
2022/06/10 02:09:34;;;;;;;12.60;11.30;;;;;;;12.41;86.68;100821.16;5099934;28;20446;-65
2022/06/10 02:12:04;;;;;;;14.43;11.70;;;;;;;12.45;86.71;100816.34;5083743;28;20470;-65
2022/06/10 02:14:37;;;;;;;11.57;10.53;;;;;;;12.38;86.77;100820.56;5099990;28;20947;-65
2022/06/10 02:17:06;;;;;;;13.47;12.07;;;;;;;12.28;86.62;100814.34;5097938;28;20878;-65
2022/06/10 02:19:36;;;;;;;14.87;12.57;;;;;;;12.27;86.79;100816.16;5100021;28;20805;-65
2022/06/10 02:22:06;;;;;;;14.30;12.60;;;;;;;12.21;86.60;100817.56;5099011;28;20486;-65
2022/06/10 02:24:37;;;;;;;14.93;13.43;;;;;;;12.22;86.54;100819.28;5099905;28;20537;-65
2022/06/10 02:27:09;;;;;;;15.97;13.00;;;;;;;12.27;86.52;100820.69;5098542;28;20858;-65
2022/06/10 02:29:40;;;;;;;13.83;11.40;;;;;;;12.18;86.43;100823.19;5100486;28;20959;-65
2022/06/10 02:32:10;;;;;;;11.10;10.10;;;;;;;12.13;86.55;100828.13;5098524;28;20509;-65
2022/06/10 02:34:36;;;;;;;11.10;10.00;;;;;;;12.09;86.67;100829.38;5098531;28;20477;-65
2022/06/10 02:37:07;;;;;;;11.37;10.27;;;;;;;12.08;86.55;100829.50;5099136;28;20478;-65
2022/06/10 02:39:51;;;;;;;14.10;12.23;;;;;;;12.02;86.58;100831.75;5099863;28;20431;-65
2022/06/10 02:42:21;;;;;;;21.97;19.63;;;;;;;12.15;87.10;100830.66;5098014;28;20486;-64
2022/06/10 02:44:53;;;;;;;24.27;20.60;;;;;;;12.27;87.70;100832.25;5098656;28;20461;-64
2022/06/10 02:47:28;;;;;;;17.43;15.70;;;;;;;12.23;87.09;100837.03;5098726;28;20479;-64
2022/06/10 02:49:55;;;;;;;28.70;24.73;;;;;;;12.28;87.94;100836.63;5099768;28;20450;-64
2022/06/10 02:52:24;;;;;;;20.47;18.30;;;;;;;12.28;87.34;100828.59;5098070;28;20467;-65
2022/06/10 02:54:51;;;;;;;26.57;18.93;;;;;;;12.41;88.16;100834.56;5100036;28;20458;-66
2022/06/10 02:57:20;;;;;;;28.97;25.87;;;;;;;12.51;88.54;100836.41;5111833;28;20484;-66
2022/06/10 03:02:44;;;;;;;24.27;19.63;;;;;;;12.50;87.74;100842.72;5076816;28;20469;-65
2022/06/10 03:05:22;;;;;;;24.27;19.53;;;;;;;12.48;88.03;100840.22;5119294;28;20450;-65
2022/06/10 03:08:01;;;;;;;23.60;20.17;;;;;;;12.43;87.33;100837.09;5101781;28;20464;-65
2022/06/10 03:10:33;;;;;;;25.10;22.50;;;;;;;12.39;87.25;100844.56;5118365;28;20556;-66
2022/06/10 03:13:12;;;;;;;26.57;20.67;;;;;;;12.40;87.02;100846.25;5109283;28;20465;-66
2022/06/10 03:15:58;;;;;;;31.67;25.17;;;;;;;12.48;87.43;100848.25;5111136;28;20592;-65
2022/06/10 03:18:33;;;;;;;35.90;28.60;;;;;;;12.60;87.70;100844.47;5099987;28;20467;-65
2022/06/10 03:21:12;;;;;;;33.63;27.47;;;;;;;12.70;87.73;100849.81;5113049;28;20477;-65
2022/06/10 03:23:46;;;;;;;28.27;20.80;;;;;;;13.04;87.11;100854.78;5120242;28;20430;-65
2022/06/10 03:26:18;;;;;;;29.47;26.10;;;;;;;13.26;85.46;100859.03;5119109;28;20464;-65
2022/06/10 03:28:51;;;;;;;35.03;31.20;;;;;;;13.89;85.00;100852.25;5120509;28;20450;-65
2022/06/10 03:31:23;;;;;;;32.20;27.67;;;;;;;14.12;83.56;100853.56;5120146;28;20481;-66
2022/06/10 03:33:56;;;;;;;31.90;28.50;;;;;;;14.06;83.75;100854.16;5124055;28;20438;-65
2022/06/10 03:36:24;;;;;;;34.67;30.97;;;;;;;14.69;81.92;100856.09;5105408;28;20993;-65
2022/06/10 03:38:53;;;;;;;29.43;24.27;;;;;;;15.65;78.18;100859.06;5124081;28;20491;-66
2022/06/10 03:41:23;;;;;;;34.70;31.00;;;;;;;16.31;74.96;100862.94;5114932;28;20474;-67
2022/06/10 03:43:51;;;;;;;24.20;21.70;;;;;;;16.98;71.14;100862.97;5122558;28;20476;-67
2022/06/10 03:46:20;;;;;;;22.43;18.37;;;;;;;17.26;65.56;100870.75;5121029;28;20480;-67
2022/06/10 03:48:48;;;;;;;23.63;21.23;;;;;;;17.92;67.19;100879.66;5123642;28;20477;-66
2022/06/10 03:51:18;;;;;;;23.10;19.50;;;;;;;18.44;63.89;100867.44;5122320;28;20478;-66
2022/06/10 03:53:46;;;;;;;19.90;17.90;;;;;;;18.99;63.86;100874.56;5123025;28;20452;-66
2022/06/10 03:56:13;;;;;;;20.37;17.47;;;;;;;18.75;61.39;100874.72;5087093;28;20573;-66
2022/06/10 03:58:41;;;;;;;17.27;14.27;;;;;;;18.95;61.28;100873.22;5123066;28;20511;-66
2022/06/10 04:01:08;;;;;;;11.20;9.57;;;;;;;18.95;57.66;100873.22;5122002;28;20573;-66
2022/06/10 04:03:35;;;;;;;11.43;9.37;;;;;;;19.04;57.53;100874.00;5123122;28;20431;-66
2022/06/10 04:06:02;;;;;;;8.93;8.03;;;;;;;18.99;56.73;100874.56;5120787;28;20469;-66
2022/06/10 04:08:30;;;;;;;7.70;7.10;;;;;;;18.54;58.56;100878.03;5108367;28;20989;-67
2022/06/10 04:10:57;;;;;;;9.27;7.97;;;;;;;19.86;55.33;100884.16;5109878;28;20474;-67
2022/06/10 04:13:24;;;;;;;7.47;6.77;;;;;;;19.29;56.47;100885.53;5121665;28;20920;-66
2022/06/10 04:15:51;;;;;;;7.60;6.50;;;;;;;20.27;53.79;100882.84;5121075;28;20541;-67
2022/06/10 04:18:18;;;;;;;7.43;6.30;;;;;;;19.52;55.83;100876.50;5121880;28;20466;-68
2022/06/10 04:20:45;;;;;;;6.63;5.93;;;;;;;20.00;53.56;100887.06;5121801;28;20505;-68
2022/06/10 04:23:14;;;;;;;7.10;6.50;;;;;;;19.78;54.45;100892.38;5123420;28;20437;-67
2022/06/10 04:25:44;;;;;;;6.33;5.73;;;;;;;20.30;52.92;100891.44;5114921;27;20482;-67
2022/06/10 04:28:11;;;;;;;6.70;6.10;;;;;;;20.88;52.10;100885.25;5123280;27;20457;-67
2022/06/10 04:30:44;;;;;;;9.90;8.90;;;;;;;21.25;51.40;100895.03;5125392;27;20529;-68
2022/06/10 04:33:11;;;;;;;9.23;6.17;;;;;;;21.17;50.26;100887.00;5127807;27;20552;-67
2022/06/10 04:35:39;;;;;;;7.83;7.03;;;;;;;22.13;49.20;100899.25;5123405;27;20462;-67
2022/06/10 04:38:07;;;;;;;13.87;8.07;;;;;;;22.40;48.51;100891.28;5127867;27;20466;-67
2022/06/10 04:40:36;;;;;;;7.27;6.57;;;;;;;22.45;47.90;100897.78;5133922;27;20480;-80
2022/06/10 04:43:05;;;;;;;10.93;7.37;;;;;;;22.30;49.27;100894.38;5141664;27;20517;-67
2022/06/10 04:45:34;;;;;;;10.33;8.50;;;;;;;21.69;50.25;100895.00;5132365;27;20469;-67
2022/06/10 04:48:01;;;;;;;10.97;8.60;;;;;;;21.37;51.35;100891.78;5130716;27;20449;-67
2022/06/10 04:50:30;;;;;;;9.87;8.67;;;;;;;22.92;47.14;100893.31;5115058;27;20504;-67
2022/06/10 04:52:57;;;;;;;12.70;8.00;;;;;;;23.02;46.95;100892.94;5139007;27;20433;-68
2022/06/10 04:55:25;;;;;;;9.00;7.23;;;;;;;23.21;46.31;100898.63;5109744;28;20468;-68
2022/06/10 04:57:53;;;;;;;8.00;7.20;;;;;;;22.39;48.50;100895.88;5118968;27;20485;-68
2022/06/10 05:00:26;;;;;;;8.00;6.67;;;;;;;23.20;46.36;100903.25;5140647;27;20441;-68
2022/06/10 05:02:54;;;;;;;10.03;7.40;;;;;;;23.24;46.47;100901.78;5138558;27;20446;-68
2022/06/10 05:05:21;;;;;;;10.97;6.77;;;;;;;24.40;43.62;100905.84;5120185;28;20817;-69
2022/06/10 05:07:48;;;;;;;9.07;6.63;;;;;;;24.23;43.72;100905.50;5120695;28;20430;-69
2022/06/10 05:10:17;;;;;;;7.73;6.93;;;;;;;23.46;45.32;100907.88;5112302;28;20450;-68
2022/06/10 05:12:45;;;;;;;7.60;6.60;;;;;;;23.64;44.43;100904.53;5119223;28;20476;-68
2022/06/10 05:15:13;;;;;;;8.87;7.00;;;;;;;22.83;46.04;100907.34;5118984;28;20454;-68
2022/06/10 05:17:43;;;;;;;9.93;7.20;;;;;;;22.17;47.94;100912.28;5120715;28;20434;-68
2022/06/10 05:20:13;;;;;;;8.13;7.10;;;;;;;22.25;48.08;100902.25;5120581;28;20446;-68
2022/06/10 05:22:40;;;;;;;10.37;7.23;;;;;;;22.51;47.83;100905.13;5121089;28;20418;-68
2022/06/10 05:25:07;;;;;;;7.20;6.50;;;;;;;23.03;45.51;100901.94;5120026;28;21006;-68
2022/06/10 05:27:34;;;;;;;10.43;7.00;;;;;;;23.61;44.86;100899.50;5118974;28;20993;-68
2022/06/10 05:30:01;;;;;;;11.30;7.00;;;;;;;23.36;45.25;100903.91;5120385;28;20435;-68
2022/06/10 05:32:28;;;;;;;6.77;6.07;;;;;;;22.85;46.18;100903.38;5120793;28;20482;-68
2022/06/10 05:34:56;;;;;;;8.60;6.63;;;;;;;22.87;46.09;100904.00;5119310;28;20450;-68
2022/06/10 05:37:25;;;;;;;7.73;6.90;;;;;;;22.54;46.07;100906.63;5119772;28;20466;-68
2022/06/10 05:39:53;;;;;;;8.83;6.60;;;;;;;22.16;47.26;100909.75;5120616;28;20481;-68
2022/06/10 05:42:21;;;;;;;8.33;6.37;;;;;;;23.09;45.35;100912.06;5118637;28;20819;-68
2022/06/10 05:44:49;;;;;;;6.73;6.07;;;;;;;22.55;45.79;100914.59;5118926;28;20445;-70
2022/06/10 05:47:19;;;;;;;8.53;6.20;;;;;;;22.34;46.65;100901.06;5119774;28;20499;-72
2022/06/10 05:49:49;;;;;;;10.00;6.07;;;;;;;22.78;46.09;100918.88;5120589;28;20438;-69
2022/06/10 05:52:20;;;;;;;7.70;5.73;;;;;;;23.44;44.41;100914.63;5118332;28;20994;-69
2022/06/10 05:54:49;;;;;;;8.93;6.30;;;;;;;23.76;42.82;100912.09;5119634;28;20462;-70
2022/06/10 05:57:16;;;;;;;13.43;6.30;;;;;;;24.47;41.78;100914.03;5119317;28;20898;-71
2022/06/10 05:59:44;;;;;;;7.33;5.77;;;;;;;25.24;40.58;100919.56;5120219;28;20499;-70
2022/06/10 06:02:13;;;;;;;8.83;5.40;;;;;;;25.79;39.34;100918.06;5120049;28;20481;-70
2022/06/10 06:04:40;;;;;;;7.50;5.13;;;;;;;26.51;37.49;100934.81;5119847;28;20453;-70
2022/06/10 06:07:08;;;;;;;7.83;5.00;;;;;;;27.00;36.47;100929.34;5118794;28;20474;-71
2022/06/10 06:09:36;;;;;;;7.73;5.60;;;;;;;25.24;39.45;100925.03;5120078;28;20429;-70
2022/06/10 06:12:04;;;;;;;12.73;5.33;;;;;;;25.31;39.19;100924.97;5119073;28;20485;-71
2022/06/10 06:14:32;;;;;;;8.37;5.80;;;;;;;24.95;39.41;100926.47;5119659;28;20872;-71
2022/06/10 06:17:02;;;;;;;8.63;5.60;;;;;;;24.75;40.29;100926.56;5119377;28;20709;-71
2022/06/10 06:19:30;;;;;;;8.17;5.07;;;;;;;24.42;40.13;100924.78;5120079;28;20470;-71
2022/06/10 06:21:57;;;;;;;6.70;5.60;;;;;;;24.06;40.72;100926.13;5118606;28;20470;-71
2022/06/10 06:24:25;;;;;;;6.13;5.47;;;;;;;24.16;40.49;100922.97;5119649;28;20462;-71
2022/06/10 06:26:54;;;;;;;8.20;5.77;;;;;;;24.49;41.07;100930.22;5118841;28;20477;-71
2022/06/10 06:29:23;;;;;;;6.67;5.47;;;;;;;24.17;41.74;100941.06;5117571;28;20449;-71
2022/06/10 06:31:50;;;;;;;8.50;5.10;;;;;;;24.76;41.17;100936.47;5118792;28;20485;-71
2022/06/10 06:34:18;;;;;;;9.37;5.50;;;;;;;24.84;40.48;100935.34;5119444;28;20486;-71
2022/06/10 06:36:46;;;;;;;8.00;5.63;;;;;;;23.70;43.14;100935.63;5119117;28;20473;-71
2022/06/10 06:39:13;;;;;;;10.40;6.33;;;;;;;23.22;43.92;100939.34;5119741;28;20494;-71
2022/06/10 06:41:40;;;;;;;8.83;5.60;;;;;;;21.48;49.14;100945.72;5119822;28;20700;-72
2022/06/10 06:44:09;;;;;;;10.83;7.00;;;;;;;20.36;50.86;100948.75;5118822;28;21020;-71
2022/06/10 06:46:37;;;;;;;11.03;7.67;;;;;;;21.13;49.55;100940.09;5118478;28;20468;-70
2022/06/10 06:49:09;;;;;;;10.33;7.13;;;;;;;21.81;48.21;100945.97;5118962;28;20445;-70
2022/06/10 06:51:38;;;;;;;7.87;7.00;;;;;;;23.05;45.43;100952.53;5113905;28;20470;-70
2022/06/10 06:54:06;;;;;;;8.80;6.20;;;;;;;23.98;43.60;100949.06;5118086;28;20450;-71
2022/06/10 06:56:33;;;;;;;11.27;7.53;;;;;;;24.81;41.30;100951.16;5120419;28;20807;-71
2022/06/10 06:59:00;;;;;;;8.90;6.77;;;;;;;25.12;40.25;100949.50;5119617;28;20489;-71
2022/06/10 07:01:29;;;;;;;7.77;6.90;;;;;;;25.32;40.29;100954.88;5120242;28;20521;-71
2022/06/10 07:03:57;;;;;;;9.10;7.70;;;;;;;25.32;40.40;100954.03;5123733;28;20422;-71
2022/06/10 07:06:27;;;;;;;9.17;7.33;;;;;;;24.90;41.16;100951.72;5122915;28;20477;-71
2022/06/10 07:09:08;;;;;;;11.97;7.33;;;;;;;24.69;41.13;100958.34;5125526;28;20433;-71
2022/06/10 07:11:38;;;;;;;8.80;6.10;;;;;;;25.25;40.21;100950.47;5123861;28;20533;-71
2022/06/10 07:14:05;;;;;;;10.07;6.77;;;;;;;25.05;40.47;100959.66;5122805;28;20483;-71
2022/06/10 07:16:33;;;;;;;8.03;7.00;;;;;;;25.77;39.69;100959.38;5124043;28;20470;-71
2022/06/10 07:19:01;;;;;;;11.97;6.73;;;;;;;25.11;40.00;100944.25;5124062;28;20466;-71
2022/06/10 07:21:28;;;;;;;8.57;6.57;;;;;;;25.74;39.42;100960.69;5122329;28;20478;-71
2022/06/10 07:23:55;;;;;;;10.97;6.00;;;;;;;26.01;39.33;100956.88;5124224;28;20760;-71
2022/06/10 07:26:23;;;;;;;10.57;6.83;;;;;;;25.65;39.59;100958.44;5142131;27;20477;-72
2022/06/10 07:28:50;;;;;;;9.10;5.87;;;;;;;26.65;37.52;100951.97;5127988;27;20450;-71
2022/06/10 07:31:17;;;;;;;12.13;5.50;;;;;;;26.33;37.36;100954.00;5123623;28;20496;-71
2022/06/10 07:33:45;;;;;;;9.17;5.10;;;;;;;25.93;38.07;100947.84;5124562;28;20426;-71
2022/06/10 07:36:13;;;;;;;8.93;6.03;;;;;;;26.49;38.39;100948.75;5122528;28;21075;-71
2022/06/10 07:38:40;;;;;;;9.97;4.17;;;;;;;27.17;37.48;100956.97;5124709;28;20480;-71
2022/06/10 07:43:51;;;;;;;9.30;5.10;;;;;;;25.96;37.94;100954.81;5122062;28;20854;-72
2022/06/10 07:46:22;;;;;;;9.70;5.50;;;;;;;26.93;37.23;100958.78;5122879;28;20470;-71
2022/06/10 07:48:50;;;;;;;9.00;3.70;;;;;;;26.39;37.54;100955.84;5123987;28;20438;-71
2022/06/10 07:51:18;;;;;;;8.17;4.10;;;;;;;26.98;36.61;100951.53;5121210;28;20989;-71
2022/06/10 07:53:45;;;;;;;7.43;4.13;;;;;;;27.29;37.07;100955.13;5124587;28;20472;-72
2022/06/10 07:56:14;;;;;;;9.13;3.70;;;;;;;26.67;37.40;100956.16;5121110;28;20482;-71
2022/06/10 07:58:41;;;;;;;8.63;2.93;;;;;;;27.29;35.93;100959.75;5106038;28;20446;-71
2022/06/10 08:01:08;;;;;;;8.27;3.17;;;;;;;26.81;35.03;100962.31;5123214;28;20474;-71
2022/06/10 08:03:35;;;;;;;12.07;3.00;;;;;;;25.54;39.18;100951.78;5123873;28;20430;-71
2022/06/10 08:06:04;;;;;;;6.97;2.90;;;;;;;26.18;37.32;100957.09;5122123;28;20469;-71
2022/06/10 08:08:49;;;;;;;7.00;2.90;;;;;;;27.24;34.54;100952.22;5124370;28;20438;-71
2022/06/10 08:11:16;;;;;;;7.50;3.00;;;;;;;26.48;36.03;100957.22;5122183;28;20469;-71
2022/06/10 08:13:43;;;;;;;6.10;3.00;;;;;;;27.50;34.48;100956.50;5121847;28;20466;-71
2022/06/10 08:16:10;;;;;;;11.00;2.30;;;;;;;28.31;32.88;100943.00;5122166;28;20739;-71
2022/06/10 08:18:38;;;;;;;5.43;2.20;;;;;;;28.51;31.63;100950.88;5122833;28;20450;-72
2022/06/10 08:23:51;;;;;;;8.63;3.03;;;;;;;25.08;37.93;100950.16;5123562;28;20433;-71
2022/06/10 08:26:19;;;;;;;7.53;2.47;;;;;;;24.48;39.43;100955.88;5122209;28;20480;-72
2022/06/10 08:28:47;;;;;;;6.40;1.97;;;;;;;24.05;40.19;100946.31;5101429;28;20462;-72
2022/06/10 08:31:14;;;;;;;6.37;2.57;;;;;;;23.71;40.42;100947.38;5039079;28;20892;-72
2022/06/10 08:33:42;;;;;;;5.20;1.97;;;;;;;24.07;39.52;100949.66;5039266;28;20434;-71
2022/06/10 08:36:13;;;;;;;3.63;1.93;;;;;;;24.41;39.72;100955.91;5038508;28;20493;-71
2022/06/10 08:38:41;;;;;;;7.80;2.50;;;;;;;24.18;39.60;100959.97;5039308;28;20434;-71
2022/06/10 08:41:10;;;;;;;6.87;2.40;;;;;;;25.27;37.54;100960.16;5038283;28;20477;-72
2022/06/10 08:43:46;;;;;;;9.73;2.60;;;;;;;23.97;39.62;100961.03;5038098;28;20468;-71
2022/06/10 08:46:20;;;;;;;5.53;1.87;;;;;;;23.59;41.59;100967.13;5116445;28;20485;-72
2022/06/10 08:49:03;;;;;;;7.93;2.60;;;;;;;23.00;41.66;100968.66;5121285;28;20434;-71
2022/06/10 08:51:34;;;;;;;7.63;2.23;;;;;;;22.95;42.70;100971.16;5121418;28;20477;-71
2022/06/10 08:54:15;;;;;;;8.30;2.77;;;;;;;22.63;42.96;100975.44;5122842;28;20434;-71
2022/06/10 08:56:45;;;;;;;7.33;2.40;;;;;;;23.28;41.99;100964.97;5110214;28;20517;-71
2022/06/10 08:59:26;;;;;;;4.77;2.00;;;;;;;22.98;40.82;100973.44;5119539;28;20503;-71
2022/06/10 09:02:00;;;;;;;5.30;2.30;;;;;;;22.41;43.02;100970.09;5107176;28;20475;-71
2022/06/10 09:04:32;;;;;;;10.17;2.20;;;;;;;22.22;43.34;100977.06;5101563;28;20481;-71
2022/06/10 09:07:04;;;;;;;5.10;2.37;;;;;;;22.05;44.07;100983.84;5101262;28;20486;-71
2022/06/10 09:09:32;;;;;;;4.77;2.07;;;;;;;22.11;44.50;100983.88;5102431;28;20481;-71
2022/06/10 09:12:04;;;;;;;10.43;2.40;;;;;;;23.11;42.12;100976.25;5099964;28;20489;-71
2022/06/10 09:14:49;;;;;;;7.10;2.20;;;;;;;22.87;44.14;100982.25;5102238;28;20447;-71
2022/06/10 09:17:20;;;;;;;4.03;2.03;;;;;;;23.45;42.11;100982.63;5102645;28;20485;-71
2022/06/10 09:19:52;;;;;;;6.73;2.30;;;;;;;23.11;43.51;100980.88;5121324;28;20467;-71
2022/06/10 09:22:27;;;;;;;5.57;2.67;;;;;;;22.97;44.55;100988.16;5122389;28;20565;-71
2022/06/10 09:24:59;;;;;;;8.77;2.97;;;;;;;23.12;43.73;100988.88;5122109;28;20449;-72
2022/06/10 09:27:28;;;;;;;9.07;3.00;;;;;;;22.61;44.24;100983.81;5111971;28;20481;-71
2022/06/10 09:29:57;;;;;;;7.00;2.90;;;;;;;22.28;45.87;100984.44;5103354;28;20446;-72
2022/06/10 09:32:30;;;;;;;11.20;2.90;;;;;;;21.79;46.21;100974.44;5100386;28;20505;-71
2022/06/10 09:35:03;;;;;;;7.17;2.70;;;;;;;22.30;46.18;100986.97;5083461;28;20992;-71
2022/06/10 09:37:38;;;;;;;5.43;2.40;;;;;;;22.55;45.39;100981.88;5102516;28;20536;-71
2022/06/10 09:43:07;;;;;;;6.30;2.50;;;;;;;22.93;45.21;100990.44;5111787;28;20469;-71
2022/06/10 09:45:40;;;;;;;7.60;2.13;;;;;;;22.96;44.92;100980.19;5119381;28;21037;-71
2022/06/10 09:48:26;;;;;;;8.50;2.17;;;;;;;22.53;43.45;100984.81;5115058;28;20825;-72
2022/06/10 09:51:01;;;;;;;6.07;2.23;;;;;;;22.96;43.66;100985.63;5099108;28;20474;-71
2022/06/10 09:53:46;;;;;;;4.30;2.00;;;;;;;23.02;43.52;100987.53;5101975;28;20446;-71
2022/06/10 09:56:45;;;;;;;7.53;2.43;;;;;;;23.04;43.65;100986.28;5090750;28;20488;-71
2022/06/10 09:59:22;;;;;;;8.97;2.57;;;;;;;23.13;44.11;100981.50;5117305;28;20495;-71
2022/06/10 10:01:59;;;;;;;6.47;2.23;;;;;;;22.82;43.57;100982.00;5120078;28;20481;-72
2022/06/10 10:05:02;;;;;;;5.10;1.90;;;;;;;22.70;43.61;100989.91;5116766;28;20434;-71
2022/06/10 10:07:37;;;;;;;4.47;2.07;;;;;;;23.24;42.00;100986.34;5118790;28;20488;-71
2022/06/10 10:10:16;;;;;;;2.93;1.20;;;;;;;22.78;43.49;100980.75;5120873;28;20442;-71
2022/06/10 10:12:49;;;;;;;6.57;2.00;;;;;;;22.97;43.46;100990.00;5118061;28;20466;-71
2022/06/10 10:15:25;;;;;;;8.67;1.80;;;;;;;22.52;43.78;100983.13;5119724;27;20504;-71
2022/06/10 10:18:08;;;;;;;4.27;1.47;;;;;;;22.36;44.11;100991.66;5107773;28;20965;-71
2022/06/10 10:20:48;;;;;;;6.43;1.97;;;;;;;23.14;42.78;100994.13;5119568;28;21232;-71
2022/06/10 10:23:17;;;;;;;7.53;1.87;;;;;;;22.71;44.66;100988.88;5120004;28;20844;-75
2022/06/10 10:25:46;;;;;;;13.53;2.60;;;;;;;22.81;43.41;100986.63;5118267;28;20482;-72
2022/06/10 10:28:18;;;;;;;5.40;1.77;;;;;;;23.19;43.02;100971.66;5111843;28;20462;-72
2022/06/10 10:30:47;;;;;;;3.43;1.53;;;;;;;22.80;44.46;100984.94;5120197;28;20491;-72
2022/06/10 10:33:16;;;;;;;5.23;2.40;;;;;;;22.49;44.29;100978.06;5120495;28;20742;-71
2022/06/10 10:35:43;;;;;;;6.13;1.90;;;;;;;;;;5106490;28;20458;-71
2022/06/10 10:38:15;;;;;;;7.50;2.07;;;;;;;23.24;44.91;100971.88;5108731;28;20450;-71
2022/06/10 10:40:46;;;;;;;3.77;1.87;;;;;;;23.54;44.50;100971.50;5123686;28;20534;-70
2022/06/10 10:43:17;;;;;;;8.00;1.93;;;;;;;23.62;43.92;100969.41;5121732;28;20454;-70
2022/06/10 10:45:55;;;;;;;4.20;1.77;;;;;;;23.82;43.72;100971.34;5124043;28;20688;-71
2022/06/10 10:48:26;;;;;;;4.43;1.43;;;;;;;24.16;42.39;100974.88;5124818;28;20465;-70
2022/06/10 10:50:59;;;;;;;4.07;1.70;;;;;;;24.76;41.51;100975.56;5121714;28;20478;-70
2022/06/10 10:53:31;;;;;;;9.33;2.00;;;;;;;24.07;42.32;100979.72;5123384;27;20535;-70
2022/06/10 10:56:02;;;;;;;4.13;2.03;;;;;;;24.93;40.62;100972.31;5114309;27;20512;-69
2022/06/10 10:58:32;;;;;;;3.80;1.47;;;;;;;24.19;40.88;100980.75;5102478;28;20458;-70
2022/06/10 11:01:02;;;;;;;3.13;1.17;;;;;;;24.11;41.51;100986.44;5094965;28;20488;-71
2022/06/10 11:03:31;;;;;;;5.83;1.37;;;;;;;23.83;41.35;100982.03;5098310;28;20909;-70
2022/06/10 11:05:59;;;;;;;5.00;1.27;;;;;;;23.33;41.96;100980.72;5102908;28;20998;-71
2022/06/10 11:08:30;;;;;;;3.50;1.20;;;;;;;24.33;42.18;100978.00;5086945;28;20455;-70
2022/06/10 11:11:19;;;;;;;5.60;1.37;;;;;;;24.02;41.23;100982.25;5093643;28;21303;-70
2022/06/10 11:13:53;;;;;;;5.30;1.50;;;;;;;24.32;41.87;100974.44;5096467;28;20455;-71
2022/06/10 11:16:43;;;;;;;4.30;1.57;;;;;;;23.83;42.09;100973.84;5105542;28;20470;-70
2022/06/10 11:19:26;;;;;;;5.70;1.57;;;;;;;24.98;40.11;100977.97;5104643;28;20454;-71
2022/06/10 11:21:57;;;;;;;7.83;1.53;;;;;;;24.18;40.94;100980.97;5103449;28;20510;-72
2022/06/10 11:24:28;;;;;;;3.40;1.70;;;;;;;24.85;41.47;100975.34;5103822;28;20449;-71
2022/06/10 11:26:58;;;;;;;4.60;1.40;;;;;;;25.70;39.59;100970.38;5102585;28;20474;-76
2022/06/10 11:29:25;;;;;;;2.00;1.20;;;;;;;26.25;37.13;100963.38;5102618;28;20458;-72
2022/06/10 11:31:56;;;;;;;4.77;1.67;;;;;;;26.95;36.18;100978.59;5101569;28;20482;-74
2022/06/10 11:34:27;;;;;;;3.70;1.40;;;;;;;26.41;38.25;100961.94;5098806;28;20522;-73
2022/06/10 11:36:55;;;;;;;3.23;1.37;;;;;;;25.16;38.88;100960.84;5102425;28;21006;-77
2022/06/10 11:39:25;;;;;;;4.73;1.70;;;;;;;24.67;39.95;100957.75;5084743;28;20513;-76
2022/06/10 11:42:08;;;;;;;3.67;1.30;;;;;;;24.67;41.25;100962.34;5104558;28;20483;-73
2022/06/10 11:44:40;;;;;;;8.00;2.10;;;;;;;25.19;39.35;100958.50;5098267;28;20463;-73
2022/06/10 11:47:12;;;;;;;6.70;1.70;;;;;;;26.29;37.62;100959.09;5099871;28;20527;-73
2022/06/10 11:49:43;;;;;;;6.40;1.73;;;;;;;25.39;39.28;100959.47;5097957;28;20455;-74